sensor_id;sensor_type;location;lat;lon;timestamp;temperature;humidity
1225;DHT22;602;48.000;7.840;2023-05-16T00:01:56;15.20;99.90
1225;DHT22;602;48.000;7.840;2023-05-16T00:04:24;15.10;99.90
1225;DHT22;602;48.000;7.840;2023-05-16T00:06:51;15.00;99.90
1225;DHT22;602;48.000;7.840;2023-05-16T00:09:19;14.80;99.90
1225;DHT22;602;48.000;7.840;2023-05-16T00:11:46;14.80;99.90
1225;DHT22;602;48.000;7.840;2023-05-16T00:14:14;14.80;99.90
1225;DHT22;602;48.000;7.840;2023-05-16T00:16:41;14.80;99.90
1225;DHT22;602;48.000;7.840;2023-05-16T00:19:08;14.90;99.90
1225;DHT22;602;48.000;7.840;2023-05-16T00:21:36;14.90;99.90
1225;DHT22;602;48.000;7.840;2023-05-16T00:24:04;14.90;99.90
1225;DHT22;602;48.000;7.840;2023-05-16T00:26:31;15.00;99.90
1225;DHT22;602;48.000;7.840;2023-05-16T00:28:58;15.10;99.90
1225;DHT22;602;48.000;7.840;2023-05-16T00:31:25;15.20;99.90
1225;DHT22;602;48.000;7.840;2023-05-16T00:33:52;15.20;99.90
1225;DHT22;602;48.000;7.840;2023-05-16T00:36:19;15.30;99.90
1225;DHT22;602;48.000;7.840;2023-05-16T00:38:47;15.30;99.90
1225;DHT22;602;48.000;7.840;2023-05-16T00:41:15;15.30;99.90
1225;DHT22;602;48.000;7.840;2023-05-16T00:43:42;15.30;99.90
1225;DHT22;602;48.000;7.840;2023-05-16T00:46:09;15.30;99.90
1225;DHT22;602;48.000;7.840;2023-05-16T00:48:36;15.30;99.90
1225;DHT22;602;48.000;7.840;2023-05-16T00:51:03;15.30;99.90
1225;DHT22;602;48.000;7.840;2023-05-16T00:53:33;15.30;99.90
1225;DHT22;602;48.000;7.840;2023-05-16T00:56:02;15.30;99.90
1225;DHT22;602;48.000;7.840;2023-05-16T00:58:29;15.30;99.90
1225;DHT22;602;48.000;7.840;2023-05-16T01:00:58;15.30;99.90
1225;DHT22;602;48.000;7.840;2023-05-16T01:03:26;15.30;99.90
1225;DHT22;602;48.000;7.840;2023-05-16T01:05:53;15.30;99.90
1225;DHT22;602;48.000;7.840;2023-05-16T01:08:20;15.30;99.90
1225;DHT22;602;48.000;7.840;2023-05-16T01:10:58;15.30;99.90
1225;DHT22;602;48.000;7.840;2023-05-16T01:13:35;15.30;99.90
1225;DHT22;602;48.000;7.840;2023-05-16T01:16:08;15.30;99.90
1225;DHT22;602;48.000;7.840;2023-05-16T01:18:41;15.40;99.90
1225;DHT22;602;48.000;7.840;2023-05-16T01:21:12;15.40;99.90
1225;DHT22;602;48.000;7.840;2023-05-16T01:23:50;15.40;99.90
1225;DHT22;602;48.000;7.840;2023-05-16T01:26:21;15.40;99.90
1225;DHT22;602;48.000;7.840;2023-05-16T01:28:50;15.30;99.90
1225;DHT22;602;48.000;7.840;2023-05-16T01:31:17;15.30;99.90
1225;DHT22;602;48.000;7.840;2023-05-16T01:33:44;15.30;99.90
1225;DHT22;602;48.000;7.840;2023-05-16T01:36:19;15.20;99.90
1225;DHT22;602;48.000;7.840;2023-05-16T01:39:00;15.20;99.90
1225;DHT22;602;48.000;7.840;2023-05-16T01:41:38;15.20;99.90
1225;DHT22;602;48.000;7.840;2023-05-16T01:44:13;15.20;99.90
1225;DHT22;602;48.000;7.840;2023-05-16T01:46:43;15.20;99.90
1225;DHT22;602;48.000;7.840;2023-05-16T01:49:15;15.30;99.90
1225;DHT22;602;48.000;7.840;2023-05-16T01:51:49;15.20;99.90
1225;DHT22;602;48.000;7.840;2023-05-16T01:54:18;15.20;99.90
1225;DHT22;602;48.000;7.840;2023-05-16T01:56:51;15.20;99.90
1225;DHT22;602;48.000;7.840;2023-05-16T01:59:19;15.10;99.90
1225;DHT22;602;48.000;7.840;2023-05-16T02:01:46;15.10;99.90
1225;DHT22;602;48.000;7.840;2023-05-16T02:04:13;15.10;99.90
1225;DHT22;602;48.000;7.840;2023-05-16T02:06:40;15.10;99.90
1225;DHT22;602;48.000;7.840;2023-05-16T02:09:07;15.10;99.90
1225;DHT22;602;48.000;7.840;2023-05-16T02:11:34;15.10;99.90
1225;DHT22;602;48.000;7.840;2023-05-16T02:14:02;15.10;99.90
1225;DHT22;602;48.000;7.840;2023-05-16T02:16:29;15.00;99.90
1225;DHT22;602;48.000;7.840;2023-05-16T02:18:56;15.10;99.90
1225;DHT22;602;48.000;7.840;2023-05-16T02:21:23;15.10;99.90
1225;DHT22;602;48.000;7.840;2023-05-16T02:23:50;15.10;99.90
1225;DHT22;602;48.000;7.840;2023-05-16T02:26:17;15.20;99.90
1225;DHT22;602;48.000;7.840;2023-05-16T02:28:43;15.20;99.90
1225;DHT22;602;48.000;7.840;2023-05-16T02:31:12;15.20;99.90
1225;DHT22;602;48.000;7.840;2023-05-16T02:33:38;15.10;99.90
1225;DHT22;602;48.000;7.840;2023-05-16T02:36:06;15.10;99.90
1225;DHT22;602;48.000;7.840;2023-05-16T02:38:33;15.10;99.90
1225;DHT22;602;48.000;7.840;2023-05-16T02:41:00;15.10;99.90
1225;DHT22;602;48.000;7.840;2023-05-16T02:43:27;15.10;99.90
1225;DHT22;602;48.000;7.840;2023-05-16T02:45:54;15.00;99.90
1225;DHT22;602;48.000;7.840;2023-05-16T02:48:22;15.00;99.90
1225;DHT22;602;48.000;7.840;2023-05-16T02:50:49;15.00;99.90
1225;DHT22;602;48.000;7.840;2023-05-16T02:53:16;14.90;99.90
1225;DHT22;602;48.000;7.840;2023-05-16T02:55:43;14.90;99.90
1225;DHT22;602;48.000;7.840;2023-05-16T02:58:10;14.80;99.90
1225;DHT22;602;48.000;7.840;2023-05-16T03:00:37;14.70;99.90
1225;DHT22;602;48.000;7.840;2023-05-16T03:03:03;14.70;99.90
1225;DHT22;602;48.000;7.840;2023-05-16T03:05:32;14.80;99.90
1225;DHT22;602;48.000;7.840;2023-05-16T03:07:58;14.80;99.90
1225;DHT22;602;48.000;7.840;2023-05-16T03:10:26;14.80;99.90
1225;DHT22;602;48.000;7.840;2023-05-16T03:12:52;14.70;99.90
1225;DHT22;602;48.000;7.840;2023-05-16T03:15:19;14.70;99.90
1225;DHT22;602;48.000;7.840;2023-05-16T03:17:46;14.70;99.90
1225;DHT22;602;48.000;7.840;2023-05-16T03:20:13;14.70;99.90
1225;DHT22;602;48.000;7.840;2023-05-16T03:22:41;14.60;99.90
1225;DHT22;602;48.000;7.840;2023-05-16T03:25:09;14.60;99.90
1225;DHT22;602;48.000;7.840;2023-05-16T03:27:36;14.60;99.90
1225;DHT22;602;48.000;7.840;2023-05-16T03:30:04;14.50;99.90
1225;DHT22;602;48.000;7.840;2023-05-16T03:32:31;14.50;99.90
1225;DHT22;602;48.000;7.840;2023-05-16T03:34:58;14.50;99.90
1225;DHT22;602;48.000;7.840;2023-05-16T03:37:25;14.40;99.90
1225;DHT22;602;48.000;7.840;2023-05-16T03:39:53;14.40;99.90
1225;DHT22;602;48.000;7.840;2023-05-16T03:42:20;14.50;99.90
1225;DHT22;602;48.000;7.840;2023-05-16T03:44:47;14.50;99.90
1225;DHT22;602;48.000;7.840;2023-05-16T03:47:14;14.50;99.90
1225;DHT22;602;48.000;7.840;2023-05-16T03:49:41;14.40;99.90
1225;DHT22;602;48.000;7.840;2023-05-16T03:52:08;14.20;99.90
1225;DHT22;602;48.000;7.840;2023-05-16T03:54:35;14.20;99.90
1225;DHT22;602;48.000;7.840;2023-05-16T03:57:04;14.10;99.90
1225;DHT22;602;48.000;7.840;2023-05-16T03:59:31;14.10;99.90
1225;DHT22;602;48.000;7.840;2023-05-16T04:01:59;14.10;99.90
1225;DHT22;602;48.000;7.840;2023-05-16T04:04:26;14.20;99.90
1225;DHT22;602;48.000;7.840;2023-05-16T04:06:53;14.00;99.90
1225;DHT22;602;48.000;7.840;2023-05-16T04:09:19;14.00;99.90
1225;DHT22;602;48.000;7.840;2023-05-16T04:11:46;14.00;99.90
1225;DHT22;602;48.000;7.840;2023-05-16T04:14:15;13.90;99.90
1225;DHT22;602;48.000;7.840;2023-05-16T04:16:42;13.80;99.90
1225;DHT22;602;48.000;7.840;2023-05-16T04:19:09;13.70;99.90
1225;DHT22;602;48.000;7.840;2023-05-16T04:21:35;13.90;99.90
1225;DHT22;602;48.000;7.840;2023-05-16T04:24:03;14.00;99.90
1225;DHT22;602;48.000;7.840;2023-05-16T04:26:30;13.90;99.90
1225;DHT22;602;48.000;7.840;2023-05-16T04:28:57;13.90;99.90
1225;DHT22;602;48.000;7.840;2023-05-16T04:31:25;13.90;99.90
1225;DHT22;602;48.000;7.840;2023-05-16T04:33:52;13.80;99.90
1225;DHT22;602;48.000;7.840;2023-05-16T04:36:20;13.80;99.90
1225;DHT22;602;48.000;7.840;2023-05-16T04:38:48;13.80;99.90
1225;DHT22;602;48.000;7.840;2023-05-16T04:41:14;13.70;99.90
1225;DHT22;602;48.000;7.840;2023-05-16T04:43:43;13.70;99.90
1225;DHT22;602;48.000;7.840;2023-05-16T04:46:10;13.70;99.90
1225;DHT22;602;48.000;7.840;2023-05-16T04:48:39;13.60;99.90
1225;DHT22;602;48.000;7.840;2023-05-16T04:51:06;13.40;99.90
1225;DHT22;602;48.000;7.840;2023-05-16T04:53:33;13.40;99.90
1225;DHT22;602;48.000;7.840;2023-05-16T04:56:00;13.40;99.90
1225;DHT22;602;48.000;7.840;2023-05-16T04:58:29;13.40;99.90
1225;DHT22;602;48.000;7.840;2023-05-16T05:00:56;13.40;99.90
1225;DHT22;602;48.000;7.840;2023-05-16T05:03:24;13.40;99.90
1225;DHT22;602;48.000;7.840;2023-05-16T05:05:52;13.40;99.90
1225;DHT22;602;48.000;7.840;2023-05-16T05:08:19;13.40;99.90
1225;DHT22;602;48.000;7.840;2023-05-16T05:10:46;13.40;99.90
1225;DHT22;602;48.000;7.840;2023-05-16T05:13:14;13.40;99.90
1225;DHT22;602;48.000;7.840;2023-05-16T05:15:41;13.40;99.90
1225;DHT22;602;48.000;7.840;2023-05-16T05:18:07;13.40;99.90
1225;DHT22;602;48.000;7.840;2023-05-16T05:20:35;13.40;99.90
1225;DHT22;602;48.000;7.840;2023-05-16T05:23:03;13.40;99.90
1225;DHT22;602;48.000;7.840;2023-05-16T05:25:30;13.50;99.90
1225;DHT22;602;48.000;7.840;2023-05-16T05:27:58;13.50;99.90
1225;DHT22;602;48.000;7.840;2023-05-16T05:30:25;13.60;99.90
1225;DHT22;602;48.000;7.840;2023-05-16T05:32:51;13.70;99.90
1225;DHT22;602;48.000;7.840;2023-05-16T05:35:19;13.70;99.90
1225;DHT22;602;48.000;7.840;2023-05-16T05:37:46;13.70;99.90
1225;DHT22;602;48.000;7.840;2023-05-16T05:40:14;13.70;99.90
1225;DHT22;602;48.000;7.840;2023-05-16T05:42:41;13.60;99.90
1225;DHT22;602;48.000;7.840;2023-05-16T05:45:09;13.70;99.90
1225;DHT22;602;48.000;7.840;2023-05-16T05:47:36;13.60;99.90
1225;DHT22;602;48.000;7.840;2023-05-16T05:50:04;13.60;99.90
1225;DHT22;602;48.000;7.840;2023-05-16T05:52:31;13.60;99.90
1225;DHT22;602;48.000;7.840;2023-05-16T05:54:58;13.50;99.90
1225;DHT22;602;48.000;7.840;2023-05-16T05:57:26;13.40;99.90
1225;DHT22;602;48.000;7.840;2023-05-16T05:59:53;13.30;99.90
1225;DHT22;602;48.000;7.840;2023-05-16T06:02:20;13.20;99.90
1225;DHT22;602;48.000;7.840;2023-05-16T06:04:48;13.10;99.90
1225;DHT22;602;48.000;7.840;2023-05-16T06:07:15;13.10;99.90
1225;DHT22;602;48.000;7.840;2023-05-16T06:09:42;13.00;99.90
1225;DHT22;602;48.000;7.840;2023-05-16T06:12:09;13.10;99.90
1225;DHT22;602;48.000;7.840;2023-05-16T06:14:38;13.00;99.90
1225;DHT22;602;48.000;7.840;2023-05-16T06:17:05;13.00;99.90
1225;DHT22;602;48.000;7.840;2023-05-16T06:19:32;13.00;99.90
1225;DHT22;602;48.000;7.840;2023-05-16T06:21:58;13.00;99.90
1225;DHT22;602;48.000;7.840;2023-05-16T06:24:25;13.00;99.90
1225;DHT22;602;48.000;7.840;2023-05-16T06:26:54;13.10;99.90
1225;DHT22;602;48.000;7.840;2023-05-16T06:29:21;13.10;99.90
1225;DHT22;602;48.000;7.840;2023-05-16T06:31:49;13.00;99.90
1225;DHT22;602;48.000;7.840;2023-05-16T06:34:16;13.10;99.90
1225;DHT22;602;48.000;7.840;2023-05-16T06:36:43;13.00;99.90
1225;DHT22;602;48.000;7.840;2023-05-16T06:39:11;13.00;99.90
1225;DHT22;602;48.000;7.840;2023-05-16T06:41:37;12.90;99.90
1225;DHT22;602;48.000;7.840;2023-05-16T06:44:04;12.90;99.90
1225;DHT22;602;48.000;7.840;2023-05-16T06:46:31;13.00;99.90
1225;DHT22;602;48.000;7.840;2023-05-16T06:48:59;13.00;99.90
1225;DHT22;602;48.000;7.840;2023-05-16T06:51:26;13.00;99.90
1225;DHT22;602;48.000;7.840;2023-05-16T06:53:53;13.10;99.90
1225;DHT22;602;48.000;7.840;2023-05-16T06:56:20;13.10;99.90
1225;DHT22;602;48.000;7.840;2023-05-16T06:58:47;13.10;99.90
1225;DHT22;602;48.000;7.840;2023-05-16T07:01:14;13.10;99.90
1225;DHT22;602;48.000;7.840;2023-05-16T07:03:41;13.10;99.90
1225;DHT22;602;48.000;7.840;2023-05-16T07:06:10;13.10;99.90
1225;DHT22;602;48.000;7.840;2023-05-16T07:08:36;13.10;99.90
1225;DHT22;602;48.000;7.840;2023-05-16T07:11:03;13.00;99.90
1225;DHT22;602;48.000;7.840;2023-05-16T07:13:30;13.00;99.90
1225;DHT22;602;48.000;7.840;2023-05-16T07:15:57;12.90;99.90
1225;DHT22;602;48.000;7.840;2023-05-16T07:18:24;12.90;99.90
1225;DHT22;602;48.000;7.840;2023-05-16T07:20:51;13.00;99.90
1225;DHT22;602;48.000;7.840;2023-05-16T07:23:19;13.00;99.90
1225;DHT22;602;48.000;7.840;2023-05-16T07:25:47;13.10;99.90
1225;DHT22;602;48.000;7.840;2023-05-16T07:28:13;13.10;99.90
1225;DHT22;602;48.000;7.840;2023-05-16T07:30:41;13.00;99.90
1225;DHT22;602;48.000;7.840;2023-05-16T07:33:08;13.10;99.90
1225;DHT22;602;48.000;7.840;2023-05-16T07:35:35;13.20;99.90
1225;DHT22;602;48.000;7.840;2023-05-16T07:38:04;13.00;99.90
1225;DHT22;602;48.000;7.840;2023-05-16T07:40:32;13.00;99.90
1225;DHT22;602;48.000;7.840;2023-05-16T07:42:59;13.00;99.90
1225;DHT22;602;48.000;7.840;2023-05-16T07:45:27;12.90;99.90
1225;DHT22;602;48.000;7.840;2023-05-16T07:47:54;13.00;99.90
1225;DHT22;602;48.000;7.840;2023-05-16T07:50:21;13.00;99.90
1225;DHT22;602;48.000;7.840;2023-05-16T07:52:47;12.90;99.90
1225;DHT22;602;48.000;7.840;2023-05-16T07:55:14;13.00;99.90
1225;DHT22;602;48.000;7.840;2023-05-16T07:57:43;13.00;99.90
1225;DHT22;602;48.000;7.840;2023-05-16T08:00:10;13.00;99.90
1225;DHT22;602;48.000;7.840;2023-05-16T08:02:40;13.00;99.90
1225;DHT22;602;48.000;7.840;2023-05-16T08:05:08;13.10;99.90
1225;DHT22;602;48.000;7.840;2023-05-16T08:07:35;13.10;99.90
1225;DHT22;602;48.000;7.840;2023-05-16T08:10:02;13.00;99.90
1225;DHT22;602;48.000;7.840;2023-05-16T08:12:29;13.00;99.90
1225;DHT22;602;48.000;7.840;2023-05-16T08:14:57;12.90;99.90
1225;DHT22;602;48.000;7.840;2023-05-16T08:17:24;12.90;99.90
1225;DHT22;602;48.000;7.840;2023-05-16T08:19:51;12.80;99.90
1225;DHT22;602;48.000;7.840;2023-05-16T08:22:18;12.90;99.90
1225;DHT22;602;48.000;7.840;2023-05-16T08:24:45;12.80;99.90
1225;DHT22;602;48.000;7.840;2023-05-16T08:27:12;12.90;99.90
1225;DHT22;602;48.000;7.840;2023-05-16T08:29:39;12.90;99.90
1225;DHT22;602;48.000;7.840;2023-05-16T08:32:08;13.00;99.90
1225;DHT22;602;48.000;7.840;2023-05-16T08:34:35;13.10;99.90
1225;DHT22;602;48.000;7.840;2023-05-16T08:37:02;13.10;99.90
1225;DHT22;602;48.000;7.840;2023-05-16T08:39:29;13.00;99.90
1225;DHT22;602;48.000;7.840;2023-05-16T08:41:56;13.00;99.90
1225;DHT22;602;48.000;7.840;2023-05-16T08:44:23;13.00;99.90
1225;DHT22;602;48.000;7.840;2023-05-16T08:46:51;13.00;99.90
1225;DHT22;602;48.000;7.840;2023-05-16T08:49:20;12.90;99.90
1225;DHT22;602;48.000;7.840;2023-05-16T08:51:47;13.00;99.90
1225;DHT22;602;48.000;7.840;2023-05-16T08:54:16;13.00;99.90
1225;DHT22;602;48.000;7.840;2023-05-16T08:56:44;13.00;99.90
1225;DHT22;602;48.000;7.840;2023-05-16T08:59:12;13.00;99.90
1225;DHT22;602;48.000;7.840;2023-05-16T09:01:40;13.00;99.90
1225;DHT22;602;48.000;7.840;2023-05-16T09:04:08;13.00;99.90
1225;DHT22;602;48.000;7.840;2023-05-16T09:06:37;13.00;99.90
1225;DHT22;602;48.000;7.840;2023-05-16T09:09:04;13.00;99.90
1225;DHT22;602;48.000;7.840;2023-05-16T09:11:32;13.00;99.90
1225;DHT22;602;48.000;7.840;2023-05-16T09:14:00;13.10;99.90
1225;DHT22;602;48.000;7.840;2023-05-16T09:16:27;13.00;99.90
1225;DHT22;602;48.000;7.840;2023-05-16T09:18:55;13.10;99.90
1225;DHT22;602;48.000;7.840;2023-05-16T09:21:26;13.10;99.90
1225;DHT22;602;48.000;7.840;2023-05-16T09:23:55;13.10;99.90
1225;DHT22;602;48.000;7.840;2023-05-16T09:26:21;13.10;99.90
1225;DHT22;602;48.000;7.840;2023-05-16T09:28:52;13.10;99.90
1225;DHT22;602;48.000;7.840;2023-05-16T09:31:20;13.00;99.90
1225;DHT22;602;48.000;7.840;2023-05-16T09:33:50;13.00;99.90
1225;DHT22;602;48.000;7.840;2023-05-16T09:36:17;13.10;99.90
1225;DHT22;602;48.000;7.840;2023-05-16T09:38:44;13.00;99.90
1225;DHT22;602;48.000;7.840;2023-05-16T09:41:12;13.00;99.90
1225;DHT22;602;48.000;7.840;2023-05-16T09:43:40;13.10;99.90
1225;DHT22;602;48.000;7.840;2023-05-16T09:46:07;13.10;99.90
1225;DHT22;602;48.000;7.840;2023-05-16T09:48:34;13.20;99.90
1225;DHT22;602;48.000;7.840;2023-05-16T09:51:05;13.20;99.90
1225;DHT22;602;48.000;7.840;2023-05-16T09:53:32;13.20;99.90
1225;DHT22;602;48.000;7.840;2023-05-16T09:56:00;13.10;99.90
1225;DHT22;602;48.000;7.840;2023-05-16T09:58:29;13.10;99.90
1225;DHT22;602;48.000;7.840;2023-05-16T10:00:57;13.10;99.90
1225;DHT22;602;48.000;7.840;2023-05-16T10:03:25;13.20;99.90
1225;DHT22;602;48.000;7.840;2023-05-16T10:05:52;13.20;99.90
1225;DHT22;602;48.000;7.840;2023-05-16T10:08:20;13.30;99.90
1225;DHT22;602;48.000;7.840;2023-05-16T10:10:50;13.40;99.90
1225;DHT22;602;48.000;7.840;2023-05-16T10:13:19;13.40;99.90
1225;DHT22;602;48.000;7.840;2023-05-16T10:15:48;13.40;99.90
1225;DHT22;602;48.000;7.840;2023-05-16T10:18:16;13.40;99.90
1225;DHT22;602;48.000;7.840;2023-05-16T10:20:46;13.30;99.90
1225;DHT22;602;48.000;7.840;2023-05-16T10:23:17;13.40;99.90
1225;DHT22;602;48.000;7.840;2023-05-16T10:25:46;13.30;99.90
1225;DHT22;602;48.000;7.840;2023-05-16T10:28:15;13.30;99.90
1225;DHT22;602;48.000;7.840;2023-05-16T10:30:43;13.40;99.90
1225;DHT22;602;48.000;7.840;2023-05-16T10:33:13;13.40;99.90
1225;DHT22;602;48.000;7.840;2023-05-16T10:35:42;13.50;99.90
1225;DHT22;602;48.000;7.840;2023-05-16T10:38:10;13.40;99.90
1225;DHT22;602;48.000;7.840;2023-05-16T10:40:38;13.40;99.90
1225;DHT22;602;48.000;7.840;2023-05-16T10:43:06;13.40;99.90
1225;DHT22;602;48.000;7.840;2023-05-16T10:45:34;13.40;99.90
1225;DHT22;602;48.000;7.840;2023-05-16T10:48:02;13.40;99.90
1225;DHT22;602;48.000;7.840;2023-05-16T10:50:33;13.40;99.90
1225;DHT22;602;48.000;7.840;2023-05-16T10:53:14;13.40;99.90
1225;DHT22;602;48.000;7.840;2023-05-16T10:55:48;13.30;99.90
1225;DHT22;602;48.000;7.840;2023-05-16T10:58:21;13.40;99.90
1225;DHT22;602;48.000;7.840;2023-05-16T11:00:48;13.30;99.90
1225;DHT22;602;48.000;7.840;2023-05-16T11:03:21;13.20;99.90
1225;DHT22;602;48.000;7.840;2023-05-16T11:05:52;13.20;99.90
1225;DHT22;602;48.000;7.840;2023-05-16T11:08:21;13.20;99.90
1225;DHT22;602;48.000;7.840;2023-05-16T11:10:48;13.20;99.90
1225;DHT22;602;48.000;7.840;2023-05-16T11:13:23;13.30;99.90
1225;DHT22;602;48.000;7.840;2023-05-16T11:15:50;13.20;99.90
1225;DHT22;602;48.000;7.840;2023-05-16T11:18:17;13.30;99.90
1225;DHT22;602;48.000;7.840;2023-05-16T11:20:44;13.30;99.90
1225;DHT22;602;48.000;7.840;2023-05-16T11:23:19;13.40;99.90
1225;DHT22;602;48.000;7.840;2023-05-16T11:25:48;13.40;99.90
1225;DHT22;602;48.000;7.840;2023-05-16T11:28:17;13.30;99.90
1225;DHT22;602;48.000;7.840;2023-05-16T11:30:46;13.40;99.90
1225;DHT22;602;48.000;7.840;2023-05-16T11:33:16;13.40;99.90
1225;DHT22;602;48.000;7.840;2023-05-16T11:35:59;13.50;99.90
1225;DHT22;602;48.000;7.840;2023-05-16T11:38:29;13.50;99.90
1225;DHT22;602;48.000;7.840;2023-05-16T11:41:01;13.50;99.90
1225;DHT22;602;48.000;7.840;2023-05-16T11:43:28;13.50;99.90
1225;DHT22;602;48.000;7.840;2023-05-16T11:45:55;13.50;99.90
1225;DHT22;602;48.000;7.840;2023-05-16T11:48:24;13.30;99.90
1225;DHT22;602;48.000;7.840;2023-05-16T11:50:51;13.40;99.90
1225;DHT22;602;48.000;7.840;2023-05-16T11:53:19;13.40;99.90
1225;DHT22;602;48.000;7.840;2023-05-16T11:55:49;13.40;99.90
1225;DHT22;602;48.000;7.840;2023-05-16T11:58:17;13.40;99.90
1225;DHT22;602;48.000;7.840;2023-05-16T12:00:49;13.40;99.90
1225;DHT22;602;48.000;7.840;2023-05-16T12:03:18;13.40;99.90
1225;DHT22;602;48.000;7.840;2023-05-16T12:05:51;13.30;99.90
1225;DHT22;602;48.000;7.840;2023-05-16T12:08:19;13.40;99.90
1225;DHT22;602;48.000;7.840;2023-05-16T12:10:49;13.40;99.90
1225;DHT22;602;48.000;7.840;2023-05-16T12:13:17;13.50;99.90
1225;DHT22;602;48.000;7.840;2023-05-16T12:15:45;13.50;99.90
1225;DHT22;602;48.000;7.840;2023-05-16T12:18:12;13.60;99.90
1225;DHT22;602;48.000;7.840;2023-05-16T12:20:39;13.60;99.90
1225;DHT22;602;48.000;7.840;2023-05-16T12:23:10;13.60;99.90
1225;DHT22;602;48.000;7.840;2023-05-16T12:25:37;13.60;99.90
1225;DHT22;602;48.000;7.840;2023-05-16T12:28:11;13.60;99.90
1225;DHT22;602;48.000;7.840;2023-05-16T12:30:40;13.60;99.90
1225;DHT22;602;48.000;7.840;2023-05-16T12:33:09;13.50;99.90
1225;DHT22;602;48.000;7.840;2023-05-16T12:35:38;13.50;99.90
1225;DHT22;602;48.000;7.840;2023-05-16T12:38:05;13.50;99.90
1225;DHT22;602;48.000;7.840;2023-05-16T12:40:33;13.40;99.90
1225;DHT22;602;48.000;7.840;2023-05-16T12:43:02;13.40;99.90
1225;DHT22;602;48.000;7.840;2023-05-16T12:45:32;13.40;99.90
1225;DHT22;602;48.000;7.840;2023-05-16T12:48:03;13.40;99.90
1225;DHT22;602;48.000;7.840;2023-05-16T12:50:32;13.50;99.90
1225;DHT22;602;48.000;7.840;2023-05-16T12:52:59;13.40;99.90
1225;DHT22;602;48.000;7.840;2023-05-16T12:55:26;13.50;99.90
1225;DHT22;602;48.000;7.840;2023-05-16T12:57:55;13.40;99.90
1225;DHT22;602;48.000;7.840;2023-05-16T13:00:22;13.40;99.90
1225;DHT22;602;48.000;7.840;2023-05-16T13:02:51;13.50;99.90
1225;DHT22;602;48.000;7.840;2023-05-16T13:05:19;13.50;99.90
1225;DHT22;602;48.000;7.840;2023-05-16T13:07:48;13.60;99.90
1225;DHT22;602;48.000;7.840;2023-05-16T13:10:16;13.60;99.90
1225;DHT22;602;48.000;7.840;2023-05-16T13:12:43;13.60;99.90
1225;DHT22;602;48.000;7.840;2023-05-16T13:15:11;13.50;99.90
1225;DHT22;602;48.000;7.840;2023-05-16T13:17:39;13.60;99.90
1225;DHT22;602;48.000;7.840;2023-05-16T13:20:09;13.60;99.90
1225;DHT22;602;48.000;7.840;2023-05-16T13:22:38;13.60;99.90
1225;DHT22;602;48.000;7.840;2023-05-16T13:25:06;13.50;99.90
1225;DHT22;602;48.000;7.840;2023-05-16T13:27:33;13.50;99.90
1225;DHT22;602;48.000;7.840;2023-05-16T13:30:00;13.40;99.90
1225;DHT22;602;48.000;7.840;2023-05-16T13:32:28;13.40;99.90
1225;DHT22;602;48.000;7.840;2023-05-16T13:34:55;13.30;99.90
1225;DHT22;602;48.000;7.840;2023-05-16T13:37:23;13.30;99.90
1225;DHT22;602;48.000;7.840;2023-05-16T13:39:50;13.40;99.90
1225;DHT22;602;48.000;7.840;2023-05-16T13:42:19;13.30;99.90
1225;DHT22;602;48.000;7.840;2023-05-16T13:44:46;13.10;99.90
1225;DHT22;602;48.000;7.840;2023-05-16T13:47:14;13.10;99.90
1225;DHT22;602;48.000;7.840;2023-05-16T13:49:41;13.10;99.90
1225;DHT22;602;48.000;7.840;2023-05-16T13:52:08;13.00;99.90
1225;DHT22;602;48.000;7.840;2023-05-16T13:54:36;13.10;99.90
1225;DHT22;602;48.000;7.840;2023-05-16T13:57:04;12.90;99.90
1225;DHT22;602;48.000;7.840;2023-05-16T13:59:31;13.00;99.90
1225;DHT22;602;48.000;7.840;2023-05-16T14:01:58;13.10;99.90
1225;DHT22;602;48.000;7.840;2023-05-16T14:04:25;13.00;99.90
1225;DHT22;602;48.000;7.840;2023-05-16T14:06:52;13.10;99.90
1225;DHT22;602;48.000;7.840;2023-05-16T14:09:19;13.00;99.90
1225;DHT22;602;48.000;7.840;2023-05-16T14:11:48;13.10;99.90
1225;DHT22;602;48.000;7.840;2023-05-16T14:14:14;13.10;99.90
1225;DHT22;602;48.000;7.840;2023-05-16T14:16:41;13.00;99.90
1225;DHT22;602;48.000;7.840;2023-05-16T14:19:10;13.00;99.90
1225;DHT22;602;48.000;7.840;2023-05-16T14:21:37;13.00;99.90
1225;DHT22;602;48.000;7.840;2023-05-16T14:24:05;13.00;99.90
1225;DHT22;602;48.000;7.840;2023-05-16T14:26:32;13.00;99.90
1225;DHT22;602;48.000;7.840;2023-05-16T14:29:00;13.00;99.90
1225;DHT22;602;48.000;7.840;2023-05-16T14:31:27;13.20;99.90
1225;DHT22;602;48.000;7.840;2023-05-16T14:33:54;13.10;99.90
1225;DHT22;602;48.000;7.840;2023-05-16T14:36:21;13.00;99.90
1225;DHT22;602;48.000;7.840;2023-05-16T14:38:48;13.10;99.90
1225;DHT22;602;48.000;7.840;2023-05-16T14:41:15;13.20;99.90
1225;DHT22;602;48.000;7.840;2023-05-16T14:43:43;13.20;99.90
1225;DHT22;602;48.000;7.840;2023-05-16T14:46:18;13.20;99.90
1225;DHT22;602;48.000;7.840;2023-05-16T14:48:45;13.20;99.90
1225;DHT22;602;48.000;7.840;2023-05-16T14:51:12;13.20;99.90
1225;DHT22;602;48.000;7.840;2023-05-16T14:53:39;13.20;99.90
1225;DHT22;602;48.000;7.840;2023-05-16T14:56:06;13.30;99.90
1225;DHT22;602;48.000;7.840;2023-05-16T14:58:33;13.30;99.90
1225;DHT22;602;48.000;7.840;2023-05-16T15:01:00;13.20;99.90
1225;DHT22;602;48.000;7.840;2023-05-16T15:03:28;13.00;99.90
1225;DHT22;602;48.000;7.840;2023-05-16T15:05:56;13.00;99.90
1225;DHT22;602;48.000;7.840;2023-05-16T15:08:23;13.10;99.90
1225;DHT22;602;48.000;7.840;2023-05-16T15:10:50;13.00;99.90
1225;DHT22;602;48.000;7.840;2023-05-16T15:13:17;12.80;99.90
1225;DHT22;602;48.000;7.840;2023-05-16T15:15:44;12.90;99.90
1225;DHT22;602;48.000;7.840;2023-05-16T15:18:11;12.90;99.90
1225;DHT22;602;48.000;7.840;2023-05-16T15:20:39;12.80;99.90
1225;DHT22;602;48.000;7.840;2023-05-16T15:23:06;12.90;99.90
1225;DHT22;602;48.000;7.840;2023-05-16T15:25:32;13.00;99.90
1225;DHT22;602;48.000;7.840;2023-05-16T15:27:59;13.00;99.90
1225;DHT22;602;48.000;7.840;2023-05-16T15:30:26;13.00;99.90
1225;DHT22;602;48.000;7.840;2023-05-16T15:32:53;13.00;99.90
1225;DHT22;602;48.000;7.840;2023-05-16T15:35:23;13.00;99.90
1225;DHT22;602;48.000;7.840;2023-05-16T15:38:06;13.00;99.90
1225;DHT22;602;48.000;7.840;2023-05-16T15:40:33;12.90;99.90
1225;DHT22;602;48.000;7.840;2023-05-16T15:43:00;12.90;99.90
1225;DHT22;602;48.000;7.840;2023-05-16T15:45:28;12.90;99.90
1225;DHT22;602;48.000;7.840;2023-05-16T15:47:55;12.90;99.90
1225;DHT22;602;48.000;7.840;2023-05-16T15:50:22;13.00;99.90
1225;DHT22;602;48.000;7.840;2023-05-16T15:52:49;12.90;99.90
1225;DHT22;602;48.000;7.840;2023-05-16T15:55:17;12.90;99.90
1225;DHT22;602;48.000;7.840;2023-05-16T15:57:44;13.00;99.90
1225;DHT22;602;48.000;7.840;2023-05-16T16:00:12;12.90;99.90
1225;DHT22;602;48.000;7.840;2023-05-16T16:02:39;12.90;99.90
1225;DHT22;602;48.000;7.840;2023-05-16T16:05:07;13.00;99.90
1225;DHT22;602;48.000;7.840;2023-05-16T16:07:34;12.90;99.90
1225;DHT22;602;48.000;7.840;2023-05-16T16:10:01;13.00;99.90
1225;DHT22;602;48.000;7.840;2023-05-16T16:12:29;12.90;99.90
1225;DHT22;602;48.000;7.840;2023-05-16T16:14:56;13.00;99.90
1225;DHT22;602;48.000;7.840;2023-05-16T16:17:23;13.00;99.90
1225;DHT22;602;48.000;7.840;2023-05-16T16:19:50;13.00;99.90
1225;DHT22;602;48.000;7.840;2023-05-16T16:22:17;13.00;99.90